My Meet Scores
Kamryn Banach, Aspire Gymnastics Academy - MyMeetScores.com
Top100 | Top Teams | Upcoming Meets | Completed Meets | Latest | Add Scores | Help| Support | Bookmark and Share

Kamryn Banach, Aspire Gymnastics Academy
Personal Bests
LevelVault BarsBeamFloorAA
39.6759.300 8.8258.70036.425
49.1259.425 9.1009.00036.175
59.3759.450 9.3509.05036.625
79.5509.750 9.2009.60037.925
89.4259.550 9.1509.42537.125
98.9509.300 8.4509.10034.950
Meet Scores
Date Meet Team Session Level Division Vault Bars Beam Floor AA
2020-01-17 2020 Bravo Classic Aspire Gymnastics Academy 9A 9 Child 8.450 4 9.300 2T 8.250 4 8.950 1T 34.950 2
2020-01-03 2020 California Grand Invitational Aspire Gymnastics Academy N02 9 Child 8.650 13T 7.250 15 8.450 14 8.775 14 33.125 15
2019-12-20 Aspire Classic - 2019 Aspire Gymnastics Academy 5B 9 Younger 8.950 6T 7.600 13 8.425 11 9.100 9 34.075 12
2019-03-29 Illinois Level 7 & 8 State Meet Aspire Gymnastics Academy 2 8 Jr B 9.300 6T 9.550 14 8.850 20 9.425 9T 37.125 12
2019-03-08 Lucky Invite Aspire Gymnastics Academy A04 8 Jr A 8.700 6T 9.400 7 8.700 19 9.350 10T 36.150 7T
2019-02-22 Great Western Invitational - Women's Aspire Gymnastics Academy 12 8 Filly 9.400 2 9.325 4T 9.150 10 9.200 9 37.075 3
2019-02-15 Big ClassicBIG CLASSIC Aspire Gymnastics Academy 3B 8 Junior A 9.425 4 9.350 4 9.000 9 9.275 5T 37.050 3
2019-02-08 Arizona Sunrays Classic Rock Invitational Aspire Gymnastics Academy R08 8 Jr B 9.050 2 8.675 9 8.825 15 9.125 10 35.675 7
2019-01-25 UGA Invitational Aspire Gymnastics Academy A04 8 Jr A 9.000 2 8.800 12 8.750 11 9.175 8 35.725 9
2019-01-18 2019 Bravo Classic Aspire Gymnastics Academy 9B 8 Child 9.000 2T 9.200 2T 8.625 7 8.875 10 35.700 2
2018-12-14 2018 Aspire Classic Aspire Gymnastics Academy 4 8 Younger 9.250 3 9.225 6T 8.650 17 8.975 12 36.100 8
2018-11-17 Paul Hamm Thanksgiving Class WOMENS Aspire Gymnastics Academy 4 8 Younger 9.200 4 8.550 9 8.750 7 9.200 7 35.700 5
2018-03-23 Illinois Level 7 & 8 State Competition Aspire Gymnastics Academy 10 7 Ch C 9.475 7T 9.650 8 9.200 18 9.600 6T 37.925 8
2018-03-09 Lucky Invitational Aspire Gymnastics Academy A06 7 Jr A 9.475 16T 9.650 7T 9.100 18 9.250 22T 37.475 14
2018-02-16 Big Classic Aspire Gymnastics Academy 2A 7 Junior A 8.900 11T 9.550 1 8.600 12 9.200 9T 36.250 10
2018-01-26 2018 UGA Classic Aspire Gymnastics Academy A2 7 Jr A 9.425 8T 9.550 5 9.075 6 9.500 6 37.550 3
2018-01-19 2018 Bravo Classic Aspire Gymnastics Academy 4A 7 Child 9.275 13T 9.400 5T 8.725 19T 9.300 13 36.700 11
2018-01-04 Atlanta Crown Invitational Aspire Gymnastics Academy A04 7 A 9.325 5 9.425 3T 8.550 10 9.275 5 36.575 6
2017-12-15 2017 Aspire Classic Aspire Gymnastics Academy 4 7 Younger 9.550 2 9.750 1 8.675 13T 9.300 3T 37.275 3
2017-11-16 Paul Hamm Thanksgiving Classic - Women Aspire Gymnastics Academy 3 7 Younger 9.100 57T 9.500 8T 9.000 36 9.250 35T 36.850 24
2017-03-30 2017 Illinois Level 3 & 5 State Aspire Gymnastics Academy All 5 Jr C 9.050 17T 9.350 8 8.800 20T 8.950 21T 36.150 13
2017-02-24 Kinetic Classic Aspire Gymnastics Academy 6 5 All Ages 9.300 2T 9.450 1 8.825 23 9.050 22 36.625 7
2017-02-18 2017 Great Western Invitational Women's Aspire Gymnastics Academy A10 5 L5 (910) 9.250 2 9.250 4 9.350 3T 8.750 4T 36.600 2
2017-01-27 2017 UGA Invitational Aspire Gymnastics Academy B4 5 Child 9.300 1T 8.900 7 8.875 5 8.675 9 35.750 5
2017-01-20 2017 Bravo Classic Aspire Gymnastics Academy 04B 5 10yrs 9.375 11 9.100 11 7.800 25 8.925 16 35.200 17
2016-12-16 2016 Aspire Classic Aspire Gymnastics Academy 5 5 Younger 9.325 3 9.200 2T 9.000 13 8.900 8 36.425 4
2016-12-09 St. Nick Invite Aspire Gymnastics Academy 1 5 JrA 9.000 4 7.000 20 8.875 7T 8.850 10T 33.725 14
2016-11-19 Paul Hamm Thanksgiving Classic - 2016 Girls Aspire Gymnastics Academy 1 5 7-10 yrs 9.225 1 9.150 1T 9.125 3T 9.000 3 36.500 1
2016-03-10 2016 Illinois Level 4 State Meet Aspire Gymnastics Academy All 4 Child-E 8.725 10 9.250 6 9.100 10 8.350 23 35.425 11
2016-02-13 Western Invite Aspire Gymnastics Academy 5 4 Filly 9.000 3 9.200 4 9.000 9T 8.925 12 36.125 4
2016-01-15 2016 Bravo Classic Aspire Gymnastics Academy 14A 4 9yrs 8.800 6T 9.425 3 8.950 12 9.000 11T 36.175 6
2015-12-11 St. Nick Invite Aspire Gymnastics Academy 2B 4 Child 8.550 7 9.200 2T 8.125 16 8.300 10T 34.175 8
2015-03-19 2015 Illinois Level 4 State Championship Aspire Gymnastics Academy All 4 ChildA 9.125 4 8.300 29 8.350 30 8.400 33 34.175 30
2015-03-13 2015 Lucky Invite Aspire Gymnastics Academy B6 4 Jr.A 8.550 4 8.250 10 8.050 11 8.575 11 33.425 11
2015-02-14 2015 Great Western Invitational Aspire Gymnastics Academy 6 4 Pony 8.750 8T 8.350 16 8.650 14T 8.175 20 33.925 16
2014-03-07 Illinois Level 3 State Meet Aspire Gymnastics Academy 4 3 Child B 9.675 3 9.300 5 8.825 15 8.625 26 36.425 14
2014-01-24 2014 UGA Super Invitational Aspire Gymnastics Academy 4B 3 All Ages 9.650 8T 8.750 15 8.625 24T 8.625 28 35.650 13
2013-12-20 2013 Aspire Classic Aspire Gymnastics Academy 7 3 6-7yrs 9.525 2T 9.000 9 8.200 14T 8.700 13T 35.425 11
Get your scores on
a t-shirt, pin, or hoodie

www.lazysuits.com